Nilwood, Illinois
Current Conditions -  °F | °C
As of 8:35 PM on Sunday 25 Jan 2015 (Local Time) from K3LF Reporting Station
Overcast Overcast  
Wind Chill: 19°   Ceiling: 1300
Heat Index: 31°   Visibility: 10mi
Dew Point: 27°   Wind: 18mph
Humidity: 86%   Direction: 360°N
Pressure: 29.92"   Gusts: 23mph
Location:  39.4°N, 89.81°W
Report Text: K3LF 260235Z AUTO 36016G20KT 10SM OVC013 M01/M03 A2992 RMK AO2 T10061026
Loading
Personal Weather Stations






























Interactive Weather Map New forecast layout! Learn more

10-Day Weather Forecast

Advertisements
Track Severe Weather on mobile